createdAt,value
2018-12-25T00:01:56.374Z,0.70
2018-12-25T00:05:03.368Z,0.46
2018-12-25T00:08:10.276Z,0.45
2018-12-25T00:11:17.212Z,0.45
2018-12-25T00:14:24.082Z,0.64
2018-12-25T00:17:30.857Z,0.56
2018-12-25T00:20:37.948Z,0.32
2018-12-25T00:23:48.903Z,0.42
2018-12-25T00:26:55.886Z,0.56
2018-12-25T00:30:02.996Z,0.54
2018-12-25T00:33:09.990Z,0.53
2018-12-25T00:36:16.747Z,0.43
2018-12-25T00:39:25.502Z,0.59
2018-12-25T00:42:32.282Z,0.59
2018-12-25T00:45:38.994Z,0.51
2018-12-25T00:48:45.789Z,0.67
2018-12-25T00:51:52.535Z,0.62
2018-12-25T00:54:59.254Z,0.68
2018-12-25T00:58:06.174Z,0.67
2018-12-25T01:01:13.026Z,0.58
2018-12-25T01:04:19.882Z,0.66
2018-12-25T01:07:26.799Z,0.70
2018-12-25T01:10:33.690Z,0.73
2018-12-25T01:13:41.521Z,0.60
2018-12-25T01:16:48.713Z,0.71
2018-12-25T01:19:55.675Z,0.66
2018-12-25T01:23:02.564Z,0.70
2018-12-25T01:26:09.785Z,0.73
2018-12-25T01:29:16.752Z,0.62
2018-12-25T01:32:24.072Z,0.71
2018-12-25T01:35:30.999Z,0.63
2018-12-25T01:38:37.723Z,0.64
2018-12-25T01:41:45.561Z,0.66
2018-12-25T01:44:52.552Z,0.68
2018-12-25T01:47:59.463Z,0.71
2018-12-25T01:51:06.626Z,0.69
2018-12-25T01:54:13.340Z,0.75
2018-12-25T01:57:20.126Z,0.81
2018-12-25T02:00:26.815Z,0.75
2018-12-25T02:03:33.541Z,0.75
2018-12-25T02:06:41.302Z,0.86
2018-12-25T02:09:48.034Z,0.76
2018-12-25T02:12:54.717Z,0.87
2018-12-25T02:16:01.710Z,0.81
2018-12-25T02:19:08.644Z,0.92
2018-12-25T02:22:15.565Z,0.87
2018-12-25T02:25:22.618Z,0.78
2018-12-25T02:28:29.630Z,0.87
2018-12-25T02:31:36.510Z,0.93
2018-12-25T02:34:44.156Z,0.95
2018-12-25T02:37:51.163Z,0.91
2018-12-25T02:40:58.052Z,0.87
2018-12-25T02:44:05.064Z,0.98
2018-12-25T02:47:12.103Z,0.98
2018-12-25T02:50:18.993Z,0.96
2018-12-25T02:53:25.984Z,0.97
2018-12-25T02:56:32.636Z,0.99
2018-12-25T02:59:39.830Z,0.96
2018-12-25T03:02:47.852Z,0.97
2018-12-25T03:05:54.788Z,0.97
2018-12-25T03:09:01.716Z,0.98
2018-12-25T03:12:08.874Z,0.91
2018-12-25T03:15:16.522Z,0.98
2018-12-25T03:18:23.280Z,0.99
2018-12-25T03:21:29.984Z,1.02
2018-12-25T03:24:37.958Z,0.92
2018-12-25T03:27:45.300Z,0.98
2018-12-25T03:30:52.310Z,0.98
2018-12-25T03:33:58.997Z,0.98
2018-12-25T03:37:06.318Z,0.95
2018-12-25T03:40:13.382Z,0.93
2018-12-25T03:43:20.398Z,0.94
2018-12-25T03:46:28.242Z,0.94
2018-12-25T03:49:35.175Z,0.87
2018-12-25T03:52:42.341Z,0.96
2018-12-25T03:55:49.318Z,0.97
2018-12-25T03:58:56.011Z,0.89
2018-12-25T04:02:03.009Z,0.87
2018-12-25T04:05:09.936Z,0.87
2018-12-25T04:08:16.918Z,0.85
2018-12-25T04:11:24.098Z,0.90
2018-12-25T04:14:30.834Z,0.94
2018-12-25T04:17:37.556Z,0.96
2018-12-25T04:20:45.098Z,0.85
2018-12-25T04:23:52.155Z,0.77
2018-12-25T04:26:58.849Z,0.93
2018-12-25T04:30:05.883Z,0.84
2018-12-25T04:33:12.854Z,0.86
2018-12-25T04:36:20.059Z,0.86
2018-12-25T04:39:27.251Z,0.88
2018-12-25T04:42:34.415Z,0.87
2018-12-25T04:45:42.686Z,0.89
2018-12-25T04:48:49.573Z,1.01
2018-12-25T04:51:56.270Z,0.93
2018-12-25T04:55:03.382Z,0.92
2018-12-25T04:58:10.101Z,1.04
2018-12-25T05:01:17.014Z,0.98
2018-12-25T05:04:23.941Z,1.05
2018-12-25T05:07:30.865Z,1.00
2018-12-25T05:10:37.760Z,1.06
2018-12-25T05:13:45.346Z,1.07
2018-12-25T05:16:52.254Z,1.00
2018-12-25T05:19:59.227Z,0.99
2018-12-25T05:23:06.264Z,1.06
2018-12-25T05:26:13.152Z,1.04
2018-12-25T05:29:20.148Z,1.07
2018-12-25T05:32:27.312Z,0.99
2018-12-25T05:35:34.285Z,0.99
2018-12-25T05:38:42.471Z,1.05
2018-12-25T05:41:49.594Z,1.09
2018-12-25T05:44:56.268Z,1.05
2018-12-25T05:48:03.219Z,1.08
2018-12-25T05:51:10.101Z,1.09
2018-12-25T05:54:17.006Z,1.11
2018-12-25T05:57:24.008Z,1.15
2018-12-25T06:00:31.024Z,1.10
2018-12-25T06:03:37.953Z,1.05
2018-12-25T06:06:45.271Z,1.14
2018-12-25T06:09:52.276Z,1.15
2018-12-25T06:12:59.017Z,1.14
2018-12-25T06:16:05.973Z,1.19
2018-12-25T06:19:12.889Z,1.12
2018-12-25T06:22:19.770Z,1.11
2018-12-25T06:25:26.705Z,1.14
2018-12-25T06:28:33.414Z,1.14
2018-12-25T06:31:40.291Z,1.15
2018-12-25T06:34:47.261Z,1.12
2018-12-25T06:37:54.219Z,1.19
2018-12-25T06:41:01.131Z,1.16
2018-12-25T06:44:08.274Z,1.18
2018-12-25T06:47:15.281Z,1.15
2018-12-25T06:50:22.248Z,1.17
2018-12-25T06:53:29.151Z,1.15
2018-12-25T06:56:36.069Z,1.17
2018-12-25T06:59:43.360Z,1.20
2018-12-25T07:02:50.089Z,1.24
2018-12-25T07:05:56.784Z,1.24
2018-12-25T07:09:04.167Z,1.20
2018-12-25T07:12:11.356Z,1.23
2018-12-25T07:15:18.070Z,1.20
2018-12-25T07:18:24.759Z,1.19
2018-12-25T07:21:31.765Z,1.23
2018-12-25T07:24:38.648Z,1.23
2018-12-25T07:27:45.561Z,1.24
2018-12-25T07:30:52.443Z,1.26
2018-12-25T07:33:59.633Z,1.22
2018-12-25T07:37:06.309Z,1.20
2018-12-25T07:40:13.321Z,1.26
2018-12-25T07:43:20.241Z,1.23
2018-12-25T07:46:27.422Z,1.25
2018-12-25T07:49:34.387Z,1.24
2018-12-25T07:52:41.580Z,1.30
2018-12-25T07:55:48.463Z,1.32
2018-12-25T07:58:55.608Z,1.31
2018-12-25T08:02:02.392Z,1.29
2018-12-25T08:05:09.152Z,1.30
2018-12-25T08:08:15.828Z,1.26
2018-12-25T08:11:22.565Z,1.24
2018-12-25T08:14:29.251Z,1.23
2018-12-25T08:17:36.238Z,1.09
2018-12-25T08:20:43.219Z,1.22
2018-12-25T08:23:50.189Z,1.27
2018-12-25T08:26:57.186Z,1.26
2018-12-25T08:30:03.913Z,1.32
2018-12-25T08:33:10.843Z,1.32
2018-12-25T08:36:17.807Z,1.33
2018-12-25T08:39:24.767Z,1.36
2018-12-25T08:42:31.499Z,1.47
2018-12-25T08:45:38.138Z,1.40
2018-12-25T08:48:45.634Z,1.46
2018-12-25T08:51:52.605Z,1.48
2018-12-25T08:54:59.833Z,1.51
2018-12-25T08:58:06.536Z,1.55
2018-12-25T09:01:13.576Z,1.57
2018-12-25T09:04:20.480Z,1.58
2018-12-25T09:07:27.419Z,1.60
2018-12-25T09:10:34.062Z,1.61
2018-12-25T09:13:41.219Z,1.61
2018-12-25T09:16:48.200Z,1.61
2018-12-25T09:19:55.117Z,1.64
2018-12-25T09:23:02.131Z,1.65
2018-12-25T09:26:09.293Z,1.71
2018-12-25T09:29:16.018Z,1.74
2018-12-25T09:32:23.026Z,1.78
2018-12-25T09:35:29.959Z,1.80
2018-12-25T09:38:36.917Z,1.86
2018-12-25T09:41:44.111Z,1.90
2018-12-25T09:44:50.854Z,1.90
2018-12-25T09:47:57.563Z,1.89
2018-12-25T09:51:04.730Z,1.91
2018-12-25T09:54:11.678Z,1.92
2018-12-25T09:57:18.950Z,1.93
2018-12-25T10:00:25.770Z,1.98
2018-12-25T10:03:32.546Z,1.97
2018-12-25T10:06:39.280Z,2.03
2018-12-25T10:09:46.370Z,2.02
2018-12-25T10:12:53.349Z,1.99
2018-12-25T10:16:00.047Z,2.01
2018-12-25T10:19:07.197Z,1.98
2018-12-25T10:22:14.209Z,1.99
2018-12-25T10:25:21.117Z,1.97
2018-12-25T10:28:28.218Z,2.02
2018-12-25T10:31:35.354Z,2.02
2018-12-25T10:34:45.519Z,1.99
2018-12-25T10:37:52.749Z,2.02
2018-12-25T10:41:00.106Z,2.04
2018-12-25T10:44:07.279Z,2.04
2018-12-25T10:47:14.015Z,2.05
2018-12-25T10:50:20.838Z,2.06
2018-12-25T10:53:28.280Z,2.04
2018-12-25T10:56:35.293Z,2.06
2018-12-25T10:59:42.173Z,2.05
2018-12-25T11:02:49.067Z,2.06
2018-12-25T11:05:56.115Z,2.07
2018-12-25T11:09:06.554Z,2.10
2018-12-25T11:12:13.489Z,2.10
2018-12-25T11:15:20.623Z,2.12
2018-12-25T11:18:27.799Z,2.11
2018-12-25T11:21:34.706Z,2.13
2018-12-25T11:24:44.719Z,2.14
2018-12-25T11:27:51.717Z,2.19
2018-12-25T11:30:58.523Z,2.19
2018-12-25T11:34:05.859Z,2.22
2018-12-25T11:37:12.970Z,2.24
2018-12-25T11:40:19.758Z,2.26
2018-12-25T11:43:26.712Z,2.25
2018-12-25T11:46:33.872Z,2.25
2018-12-25T11:49:41.147Z,2.29
2018-12-25T11:52:48.900Z,2.27
2018-12-25T11:55:56.275Z,2.23
2018-12-25T11:59:03.265Z,2.18
2018-12-25T12:02:17.010Z,2.16
2018-12-25T12:05:18.604Z,2.20
2018-12-25T12:08:25.345Z,2.24
2018-12-25T12:11:32.210Z,2.28
2018-12-25T12:14:38.938Z,2.31
2018-12-25T12:17:47.562Z,2.26
2018-12-25T12:20:54.517Z,2.27
2018-12-25T12:24:01.424Z,2.26
2018-12-25T12:27:08.412Z,2.30
2018-12-25T12:30:15.661Z,2.29
2018-12-25T12:33:22.370Z,2.28
2018-12-25T12:36:29.302Z,2.32
2018-12-25T12:39:36.350Z,2.36
2018-12-25T12:42:45.230Z,2.37
2018-12-25T12:45:52.434Z,2.36
2018-12-25T12:48:59.407Z,2.39
2018-12-25T12:52:06.415Z,2.38
2018-12-25T12:55:13.687Z,2.39
2018-12-25T12:58:20.736Z,2.40
2018-12-25T13:01:27.716Z,2.41
2018-12-25T13:04:34.953Z,2.36
2018-12-25T13:07:44.220Z,2.43
2018-12-25T13:10:51.423Z,2.40
2018-12-25T13:14:01.090Z,2.38
2018-12-25T13:17:07.892Z,2.40
2018-12-25T13:20:14.576Z,2.36
2018-12-25T13:23:21.583Z,2.42
2018-12-25T13:26:29.674Z,2.42
2018-12-25T13:29:36.902Z,2.38
2018-12-25T13:32:46.557Z,2.39
2018-12-25T13:35:53.615Z,2.37
2018-12-25T13:39:00.509Z,2.38
2018-12-25T13:42:07.538Z,2.42
2018-12-25T13:45:14.652Z,2.38
2018-12-25T13:48:21.655Z,2.40
2018-12-25T13:51:28.612Z,2.40
2018-12-25T13:54:35.560Z,2.41
2018-12-25T13:57:43.556Z,2.42
2018-12-25T14:00:51.003Z,2.42
2018-12-25T14:03:58.211Z,2.40
2018-12-25T14:07:05.001Z,2.42
2018-12-25T14:10:11.683Z,2.44
2018-12-25T14:13:18.708Z,2.44
2018-12-25T14:16:25.613Z,2.43
2018-12-25T14:19:32.600Z,2.46
2018-12-25T14:22:39.255Z,2.48
2018-12-25T14:25:46.488Z,2.47
2018-12-25T14:28:53.724Z,2.48
2018-12-25T14:32:00.700Z,2.46
2018-12-25T14:35:07.853Z,2.46
2018-12-25T14:38:15.522Z,2.44
2018-12-25T14:41:22.295Z,2.41
2018-12-25T14:44:29.114Z,2.42
2018-12-25T14:47:35.848Z,2.43
2018-12-25T14:50:43.200Z,2.42
2018-12-25T14:53:50.547Z,2.39
2018-12-25T14:56:57.362Z,2.40
2018-12-25T15:00:04.563Z,2.39
2018-12-25T15:03:13.083Z,2.40
2018-12-25T15:06:20.071Z,2.41
2018-12-25T15:09:27.332Z,2.42
2018-12-25T15:12:34.032Z,2.39
2018-12-25T15:15:41.135Z,2.43
2018-12-25T15:18:48.241Z,2.44
2018-12-25T15:21:55.418Z,2.41
2018-12-25T15:25:02.276Z,2.44
2018-12-25T15:28:09.113Z,2.49
2018-12-25T15:31:16.132Z,2.43
2018-12-25T15:34:23.098Z,2.44
2018-12-25T15:37:30.202Z,2.40
2018-12-25T15:40:37.239Z,2.38
2018-12-25T15:43:46.406Z,2.38
2018-12-25T15:46:53.115Z,2.42
2018-12-25T15:50:00.321Z,2.36
2018-12-25T15:53:07.050Z,2.38
2018-12-25T15:56:13.796Z,2.41
2018-12-25T15:59:20.782Z,2.38
2018-12-25T16:02:28.794Z,2.40
2018-12-25T16:05:36.008Z,2.39
2018-12-25T16:08:45.848Z,2.37
2018-12-25T16:11:52.970Z,2.40
2018-12-25T16:14:59.952Z,2.37
2018-12-25T16:18:07.178Z,2.36
2018-12-25T16:21:14.136Z,2.36
2018-12-25T16:24:27.280Z,2.36
2018-12-25T16:27:29.782Z,2.41
2018-12-25T16:30:36.697Z,2.37
2018-12-25T16:33:44.268Z,2.41
2018-12-25T16:36:51.396Z,2.39
2018-12-25T16:39:58.494Z,2.40
2018-12-25T16:43:05.430Z,2.39
2018-12-25T16:46:12.392Z,2.41
2018-12-25T16:49:19.338Z,2.36
2018-12-25T16:52:28.062Z,2.39
2018-12-25T16:55:35.282Z,2.38
2018-12-25T16:58:43.003Z,2.40
2018-12-25T17:01:50.018Z,2.36
2018-12-25T17:04:56.922Z,2.38
2018-12-25T17:08:04.259Z,2.40
2018-12-25T17:11:11.250Z,2.37
2018-12-25T17:14:18.301Z,2.43
2018-12-25T17:17:25.279Z,2.36
2018-12-25T17:20:32.491Z,2.36
2018-12-25T17:23:39.525Z,2.37
2018-12-25T17:26:46.838Z,2.36
2018-12-25T17:29:53.581Z,2.39
2018-12-25T17:33:00.448Z,2.37
2018-12-25T17:36:07.461Z,2.36
2018-12-25T17:39:14.442Z,2.38
2018-12-25T17:42:21.647Z,2.35
2018-12-25T17:45:28.447Z,2.35
2018-12-25T17:48:35.122Z,2.33
2018-12-25T17:51:42.308Z,2.33
2018-12-25T17:54:49.244Z,2.35
2018-12-25T17:57:56.585Z,2.27
2018-12-25T18:01:03.268Z,2.24
2018-12-25T18:04:10.083Z,2.25
2018-12-25T18:07:17.401Z,2.23
2018-12-25T18:10:25.429Z,2.18
2018-12-25T18:13:32.423Z,2.17
2018-12-25T18:16:39.464Z,2.11
2018-12-25T18:19:49.478Z,2.09
2018-12-25T18:22:56.492Z,2.03
2018-12-25T18:26:03.277Z,2.10
2018-12-25T18:29:10.090Z,2.06
2018-12-25T18:32:16.800Z,2.00
2018-12-25T18:35:23.961Z,1.94
2018-12-25T18:38:31.666Z,2.06
2018-12-25T18:41:39.341Z,2.03
2018-12-25T18:44:49.452Z,2.05
2018-12-25T18:47:57.308Z,1.92
2018-12-25T18:51:04.541Z,1.91
2018-12-25T18:54:11.628Z,1.89
2018-12-25T18:57:18.697Z,1.84
2018-12-25T19:00:25.840Z,1.96
2018-12-25T19:03:35.304Z,1.90
2018-12-25T19:06:43.442Z,1.85
2018-12-25T19:09:50.353Z,1.91
2018-12-25T19:12:57.499Z,1.85
2018-12-25T19:16:05.430Z,1.81
2018-12-25T19:19:12.255Z,1.85
2018-12-25T19:22:18.936Z,1.77
2018-12-25T19:25:25.702Z,1.87
2018-12-25T19:28:32.391Z,1.94
2018-12-25T19:31:39.179Z,1.91
2018-12-25T19:34:46.001Z,1.92
2018-12-25T19:37:52.752Z,1.88
2018-12-25T19:40:59.509Z,1.91
2018-12-25T19:44:06.269Z,1.90
2018-12-25T19:47:13.181Z,1.92
2018-12-25T19:50:20.143Z,1.96
2018-12-25T19:53:27.108Z,2.00
2018-12-25T19:56:34.317Z,1.99
2018-12-25T19:59:41.268Z,2.01
2018-12-25T20:03:00.013Z,2.02
2018-12-25T20:07:25.710Z,2.01
2018-12-25T20:11:23.441Z,1.99
2018-12-25T20:15:17.678Z,2.03
2018-12-25T20:19:04.035Z,2.04
2018-12-25T20:23:37.423Z,2.06
2018-12-25T20:27:45.965Z,2.06
2018-12-25T20:32:03.467Z,2.10
2018-12-25T20:36:24.409Z,2.03
2018-12-25T20:40:28.739Z,2.02
2018-12-25T20:44:43.684Z,2.01
2018-12-25T20:48:54.685Z,1.98
2018-12-25T20:53:26.848Z,2.02
2018-12-25T20:57:43.080Z,2.01
2018-12-25T21:01:45.824Z,2.06
2018-12-25T21:05:56.860Z,2.02
2018-12-25T21:10:14.122Z,2.02
2018-12-25T21:14:26.213Z,2.05
2018-12-25T21:18:39.392Z,2.08
2018-12-25T21:23:17.200Z,2.08
2018-12-25T21:27:18.366Z,2.10
2018-12-25T21:30:26.948Z,2.14
2018-12-25T21:33:34.007Z,2.18
2018-12-25T21:36:42.999Z,2.17
2018-12-25T21:39:50.214Z,2.21
2018-12-25T21:42:58.146Z,2.19
2018-12-25T21:46:05.311Z,2.18
2018-12-25T21:49:14.366Z,2.15
2018-12-25T21:52:21.322Z,2.17
2018-12-25T21:55:28.143Z,2.12
2018-12-25T21:58:35.363Z,2.13
2018-12-25T22:01:42.295Z,2.11
2018-12-25T22:04:51.918Z,2.13
2018-12-25T22:07:58.976Z,2.14
2018-12-25T22:11:05.905Z,2.14
2018-12-25T22:14:13.117Z,2.09
2018-12-25T22:17:20.235Z,2.18
2018-12-25T22:20:31.691Z,2.16
2018-12-25T22:23:39.334Z,2.19
2018-12-25T22:26:49.327Z,2.20
2018-12-25T22:29:57.479Z,2.17
2018-12-25T22:33:04.291Z,2.18
2018-12-25T22:36:11.469Z,2.24
2018-12-25T22:39:18.181Z,2.19
2018-12-25T22:42:25.188Z,2.17
2018-12-25T22:45:33.177Z,2.21
2018-12-25T22:48:41.983Z,2.22
2018-12-25T22:51:48.901Z,2.18
2018-12-25T22:54:55.696Z,2.16
2018-12-25T22:58:02.951Z,2.14
2018-12-25T23:01:09.743Z,2.16
2018-12-25T23:04:16.715Z,2.08
2018-12-25T23:07:23.732Z,2.10
2018-12-25T23:10:30.393Z,2.08
2018-12-25T23:13:37.619Z,2.13
2018-12-25T23:16:44.564Z,2.06
2018-12-25T23:19:51.672Z,2.11
2018-12-25T23:22:59.259Z,2.13
2018-12-25T23:26:06.281Z,2.09
2018-12-25T23:29:13.273Z,2.10
2018-12-25T23:32:20.372Z,2.11
2018-12-25T23:35:27.297Z,2.13
2018-12-25T23:38:34.192Z,2.09
2018-12-25T23:41:41.859Z,2.13
2018-12-25T23:44:48.810Z,2.12
2018-12-25T23:47:55.779Z,2.08
2018-12-25T23:51:02.770Z,2.05
2018-12-25T23:54:09.450Z,2.09
2018-12-25T23:57:16.220Z,2.08
